sensor_id;sensor_type;location;lat;lon;timestamp;P1;durP1;ratioP1;P2;durP2;ratioP2
48795;SDS011;34607;48.520;-1.330;2023-07-13T07:53:23;10.45;;;3.53;;
48795;SDS011;34607;48.520;-1.330;2023-07-13T07:55:51;7.63;;;2.92;;
48795;SDS011;34607;48.520;-1.330;2023-07-13T07:58:21;13.10;;;3.58;;
48795;SDS011;34607;48.520;-1.330;2023-07-13T08:00:51;12.77;;;3.00;;
48795;SDS011;34607;48.520;-1.330;2023-07-13T08:03:18;7.00;;;3.22;;
48795;SDS011;34607;48.520;-1.330;2023-07-13T08:05:45;10.02;;;3.22;;
48795;SDS011;34607;48.520;-1.330;2023-07-13T08:08:12;8.02;;;3.65;;
48795;SDS011;34607;48.520;-1.330;2023-07-13T08:10:41;11.65;;;3.50;;
48795;SDS011;34607;48.520;-1.330;2023-07-13T08:13:08;8.25;;;3.22;;
48795;SDS011;34607;48.520;-1.330;2023-07-13T08:15:35;7.35;;;2.63;;
48795;SDS011;34607;48.520;-1.330;2023-07-13T08:18:03;7.60;;;2.53;;
48795;SDS011;34607;48.520;-1.330;2023-07-13T08:20:30;6.95;;;2.63;;
48795;SDS011;34607;48.520;-1.330;2023-07-13T08:22:57;7.82;;;2.50;;
48795;SDS011;34607;48.520;-1.330;2023-07-13T08:25:24;6.50;;;2.58;;
48795;SDS011;34607;48.520;-1.330;2023-07-13T08:27:52;8.20;;;3.83;;
48795;SDS011;34607;48.520;-1.330;2023-07-13T08:30:19;5.50;;;2.55;;
48795;SDS011;34607;48.520;-1.330;2023-07-13T08:32:46;5.82;;;2.90;;
48795;SDS011;34607;48.520;-1.330;2023-07-13T08:35:13;4.32;;;2.33;;
48795;SDS011;34607;48.520;-1.330;2023-07-13T08:37:41;10.15;;;2.72;;
48795;SDS011;34607;48.520;-1.330;2023-07-13T08:40:08;7.93;;;2.70;;
48795;SDS011;34607;48.520;-1.330;2023-07-13T08:42:37;5.55;;;2.53;;
48795;SDS011;34607;48.520;-1.330;2023-07-13T08:45:13;10.93;;;2.50;;
48795;SDS011;34607;48.520;-1.330;2023-07-13T08:47:47;8.50;;;3.25;;
48795;SDS011;34607;48.520;-1.330;2023-07-13T08:50:20;7.25;;;2.33;;
48795;SDS011;34607;48.520;-1.330;2023-07-13T08:52:50;5.75;;;2.25;;
48795;SDS011;34607;48.520;-1.330;2023-07-13T08:55:18;5.53;;;2.33;;
48795;SDS011;34607;48.520;-1.330;2023-07-13T08:57:48;6.38;;;2.20;;
48795;SDS011;34607;48.520;-1.330;2023-07-13T09:00:23;9.80;;;2.92;;
48795;SDS011;34607;48.520;-1.330;2023-07-13T09:02:59;7.70;;;2.22;;
48795;SDS011;34607;48.520;-1.330;2023-07-13T09:05:28;6.80;;;2.22;;
48795;SDS011;34607;48.520;-1.330;2023-07-13T09:08:01;5.55;;;1.75;;
48795;SDS011;34607;48.520;-1.330;2023-07-13T09:10:41;7.57;;;2.30;;
48795;SDS011;34607;48.520;-1.330;2023-07-13T09:13:18;5.60;;;2.17;;
48795;SDS011;34607;48.520;-1.330;2023-07-13T09:15:54;4.88;;;2.10;;
48795;SDS011;34607;48.520;-1.330;2023-07-13T09:18:23;5.03;;;2.05;;
48795;SDS011;34607;48.520;-1.330;2023-07-13T09:20:56;6.65;;;2.15;;
48795;SDS011;34607;48.520;-1.330;2023-07-13T09:23:27;3.90;;;1.90;;
48795;SDS011;34607;48.520;-1.330;2023-07-13T09:25:58;5.95;;;2.05;;
48795;SDS011;34607;48.520;-1.330;2023-07-13T09:28:29;3.78;;;1.60;;
48795;SDS011;34607;48.520;-1.330;2023-07-13T09:31:06;5.97;;;2.28;;
48795;SDS011;34607;48.520;-1.330;2023-07-13T09:33:39;4.88;;;1.45;;
48795;SDS011;34607;48.520;-1.330;2023-07-13T09:36:16;5.72;;;1.65;;
48795;SDS011;34607;48.520;-1.330;2023-07-13T09:38:45;5.88;;;1.98;;
48795;SDS011;34607;48.520;-1.330;2023-07-13T09:41:17;4.15;;;1.73;;
48795;SDS011;34607;48.520;-1.330;2023-07-13T09:46:43;5.07;;;1.60;;
48795;SDS011;34607;48.520;-1.330;2023-07-13T09:49:12;6.10;;;2.00;;
48795;SDS011;34607;48.520;-1.330;2023-07-13T09:51:40;4.07;;;1.67;;
48795;SDS011;34607;48.520;-1.330;2023-07-13T09:54:17;3.05;;;1.92;;
48795;SDS011;34607;48.520;-1.330;2023-07-13T09:56:45;4.72;;;1.40;;
48795;SDS011;34607;48.520;-1.330;2023-07-13T09:59:18;3.78;;;1.45;;
48795;SDS011;34607;48.520;-1.330;2023-07-13T10:01:48;5.40;;;1.98;;
48795;SDS011;34607;48.520;-1.330;2023-07-13T10:04:16;3.33;;;1.38;;
48795;SDS011;34607;48.520;-1.330;2023-07-13T10:06:45;2.97;;;1.73;;
48795;SDS011;34607;48.520;-1.330;2023-07-13T10:09:14;4.38;;;1.75;;
48795;SDS011;34607;48.520;-1.330;2023-07-13T10:11:42;2.72;;;1.42;;
48795;SDS011;34607;48.520;-1.330;2023-07-13T10:14:10;4.05;;;1.80;;
48795;SDS011;34607;48.520;-1.330;2023-07-13T10:16:41;2.58;;;1.88;;
48795;SDS011;34607;48.520;-1.330;2023-07-13T10:19:13;5.03;;;1.90;;
48795;SDS011;34607;48.520;-1.330;2023-07-13T10:21:47;3.67;;;1.42;;
48795;SDS011;34607;48.520;-1.330;2023-07-13T10:24:20;2.55;;;1.40;;
48795;SDS011;34607;48.520;-1.330;2023-07-13T10:26:52;3.95;;;1.70;;
48795;SDS011;34607;48.520;-1.330;2023-07-13T10:29:22;4.68;;;1.88;;
48795;SDS011;34607;48.520;-1.330;2023-07-13T10:31:53;3.35;;;1.60;;
48795;SDS011;34607;48.520;-1.330;2023-07-13T10:34:22;3.95;;;1.75;;
48795;SDS011;34607;48.520;-1.330;2023-07-13T10:36:51;3.90;;;1.65;;
48795;SDS011;34607;48.520;-1.330;2023-07-13T10:39:19;3.92;;;2.25;;
48795;SDS011;34607;48.520;-1.330;2023-07-13T10:41:49;3.80;;;1.92;;
48795;SDS011;34607;48.520;-1.330;2023-07-13T10:44:21;5.15;;;1.77;;
48795;SDS011;34607;48.520;-1.330;2023-07-13T10:46:52;4.03;;;1.50;;
48795;SDS011;34607;48.520;-1.330;2023-07-13T10:51:55;2.83;;;1.50;;
48795;SDS011;34607;48.520;-1.330;2023-07-13T10:54:26;3.53;;;1.80;;
48795;SDS011;34607;48.520;-1.330;2023-07-13T10:57:07;3.33;;;1.70;;
48795;SDS011;34607;48.520;-1.330;2023-07-13T10:59:42;4.40;;;1.40;;
48795;SDS011;34607;48.520;-1.330;2023-07-13T11:02:13;5.82;;;1.70;;
48795;SDS011;34607;48.520;-1.330;2023-07-13T11:04:48;2.92;;;1.63;;
48795;SDS011;34607;48.520;-1.330;2023-07-13T11:07:21;3.38;;;1.90;;
48795;SDS011;34607;48.520;-1.330;2023-07-13T11:09:49;3.08;;;1.83;;
48795;SDS011;34607;48.520;-1.330;2023-07-13T11:12:28;4.30;;;1.92;;
48795;SDS011;34607;48.520;-1.330;2023-07-13T11:15:29;2.50;;;1.40;;
48795;SDS011;34607;48.520;-1.330;2023-07-13T11:18:01;4.65;;;2.08;;
48795;SDS011;34607;48.520;-1.330;2023-07-13T11:20:34;5.05;;;2.05;;
48795;SDS011;34607;48.520;-1.330;2023-07-13T11:23:09;3.15;;;1.80;;
48795;SDS011;34607;48.520;-1.330;2023-07-13T11:25:46;5.88;;;1.70;;
48795;SDS011;34607;48.520;-1.330;2023-07-13T11:28:16;5.70;;;1.65;;
48795;SDS011;34607;48.520;-1.330;2023-07-13T11:33:16;4.20;;;1.80;;
48795;SDS011;34607;48.520;-1.330;2023-07-13T11:35:49;4.13;;;1.63;;
48795;SDS011;34607;48.520;-1.330;2023-07-13T11:38:22;5.97;;;2.30;;
48795;SDS011;34607;48.520;-1.330;2023-07-13T11:40:54;1.38;;;1.27;;
48795;SDS011;34607;48.520;-1.330;2023-07-13T11:43:25;4.65;;;1.67;;
48795;SDS011;34607;48.520;-1.330;2023-07-13T11:45:52;3.80;;;1.70;;
48795;SDS011;34607;48.520;-1.330;2023-07-13T11:48:20;5.05;;;2.03;;
48795;SDS011;34607;48.520;-1.330;2023-07-13T11:50:50;3.90;;;1.50;;
48795;SDS011;34607;48.520;-1.330;2023-07-13T11:53:21;3.47;;;1.70;;
48795;SDS011;34607;48.520;-1.330;2023-07-13T11:55:52;3.67;;;1.50;;
48795;SDS011;34607;48.520;-1.330;2023-07-13T11:58:21;5.25;;;1.75;;
48795;SDS011;34607;48.520;-1.330;2023-07-13T12:00:51;3.63;;;2.10;;
48795;SDS011;34607;48.520;-1.330;2023-07-13T12:03:22;4.85;;;1.80;;
48795;SDS011;34607;48.520;-1.330;2023-07-13T12:05:58;1.98;;;1.25;;
48795;SDS011;34607;48.520;-1.330;2023-07-13T12:08:28;4.68;;;1.80;;
48795;SDS011;34607;48.520;-1.330;2023-07-13T12:10:56;3.45;;;2.05;;
48795;SDS011;34607;48.520;-1.330;2023-07-13T12:13:26;5.93;;;1.65;;
48795;SDS011;34607;48.520;-1.330;2023-07-13T12:15:55;7.40;;;2.00;;
48795;SDS011;34607;48.520;-1.330;2023-07-13T12:18:28;4.72;;;1.35;;
48795;SDS011;34607;48.520;-1.330;2023-07-13T12:20:59;3.67;;;1.75;;
48795;SDS011;34607;48.520;-1.330;2023-07-13T12:23:29;2.65;;;1.90;;
48795;SDS011;34607;48.520;-1.330;2023-07-13T12:25:58;4.15;;;2.63;;
48795;SDS011;34607;48.520;-1.330;2023-07-13T12:28:30;5.25;;;1.80;;
48795;SDS011;34607;48.520;-1.330;2023-07-13T12:33:27;3.33;;;2.10;;
48795;SDS011;34607;48.520;-1.330;2023-07-13T12:35:55;3.25;;;1.80;;
48795;SDS011;34607;48.520;-1.330;2023-07-13T12:38:24;4.47;;;2.17;;
48795;SDS011;34607;48.520;-1.330;2023-07-13T12:40:53;3.33;;;1.92;;
48795;SDS011;34607;48.520;-1.330;2023-07-13T12:43:20;3.72;;;2.20;;
48795;SDS011;34607;48.520;-1.330;2023-07-13T12:45:55;4.07;;;1.90;;
48795;SDS011;34607;48.520;-1.330;2023-07-13T12:48:23;4.60;;;2.00;;
48795;SDS011;34607;48.520;-1.330;2023-07-13T12:50:51;4.38;;;2.38;;
48795;SDS011;34607;48.520;-1.330;2023-07-13T12:53:22;4.55;;;1.95;;
48795;SDS011;34607;48.520;-1.330;2023-07-13T12:55:58;5.97;;;2.55;;
48795;SDS011;34607;48.520;-1.330;2023-07-13T12:58:29;6.90;;;2.42;;
48795;SDS011;34607;48.520;-1.330;2023-07-13T13:00:59;4.10;;;2.00;;
48795;SDS011;34607;48.520;-1.330;2023-07-13T13:03:29;4.25;;;2.05;;
48795;SDS011;34607;48.520;-1.330;2023-07-13T13:05:59;6.75;;;2.30;;
48795;SDS011;34607;48.520;-1.330;2023-07-13T13:08:28;4.00;;;1.98;;
48795;SDS011;34607;48.520;-1.330;2023-07-13T13:10:57;6.10;;;2.45;;
48795;SDS011;34607;48.520;-1.330;2023-07-13T13:13:25;3.58;;;1.60;;
48795;SDS011;34607;48.520;-1.330;2023-07-13T13:15:52;3.45;;;2.08;;
48795;SDS011;34607;48.520;-1.330;2023-07-13T13:18:20;4.82;;;2.03;;
48795;SDS011;34607;48.520;-1.330;2023-07-13T13:20:49;4.95;;;2.38;;
48795;SDS011;34607;48.520;-1.330;2023-07-13T13:23:18;4.28;;;1.73;;
48795;SDS011;34607;48.520;-1.330;2023-07-13T13:25:49;3.35;;;1.70;;
48795;SDS011;34607;48.520;-1.330;2023-07-13T13:28:18;3.47;;;1.67;;
48795;SDS011;34607;48.520;-1.330;2023-07-13T13:30:47;2.70;;;1.35;;
48795;SDS011;34607;48.520;-1.330;2023-07-13T13:33:16;5.07;;;1.77;;
48795;SDS011;34607;48.520;-1.330;2023-07-13T13:35:45;3.50;;;1.48;;
48795;SDS011;34607;48.520;-1.330;2023-07-13T13:38:13;2.00;;;1.33;;
48795;SDS011;34607;48.520;-1.330;2023-07-13T13:40:41;3.90;;;1.40;;
48795;SDS011;34607;48.520;-1.330;2023-07-13T13:43:13;1.70;;;1.48;;
48795;SDS011;34607;48.520;-1.330;2023-07-13T13:45:43;4.05;;;1.83;;
48795;SDS011;34607;48.520;-1.330;2023-07-13T13:48:15;2.38;;;1.63;;
48795;SDS011;34607;48.520;-1.330;2023-07-13T13:50:45;3.40;;;1.55;;
48795;SDS011;34607;48.520;-1.330;2023-07-13T13:53:13;3.35;;;2.05;;
48795;SDS011;34607;48.520;-1.330;2023-07-13T13:55:41;3.35;;;1.70;;
48795;SDS011;34607;48.520;-1.330;2023-07-13T13:58:09;4.47;;;2.20;;
48795;SDS011;34607;48.520;-1.330;2023-07-13T14:00:37;3.92;;;1.70;;
48795;SDS011;34607;48.520;-1.330;2023-07-13T14:03:05;4.65;;;2.10;;
48795;SDS011;34607;48.520;-1.330;2023-07-13T14:05:40;6.72;;;2.30;;
48795;SDS011;34607;48.520;-1.330;2023-07-13T14:08:08;5.35;;;2.20;;
48795;SDS011;34607;48.520;-1.330;2023-07-13T14:10:40;4.43;;;1.92;;
48795;SDS011;34607;48.520;-1.330;2023-07-13T14:13:08;4.22;;;2.05;;
48795;SDS011;34607;48.520;-1.330;2023-07-13T14:15:44;5.75;;;2.03;;
48795;SDS011;34607;48.520;-1.330;2023-07-13T14:18:12;3.80;;;2.20;;
48795;SDS011;34607;48.520;-1.330;2023-07-13T14:20:43;3.65;;;2.28;;
48795;SDS011;34607;48.520;-1.330;2023-07-13T14:23:11;7.97;;;2.58;;
48795;SDS011;34607;48.520;-1.330;2023-07-13T14:25:39;5.97;;;2.72;;
48795;SDS011;34607;48.520;-1.330;2023-07-13T14:28:12;2.35;;;1.70;;
48795;SDS011;34607;48.520;-1.330;2023-07-13T14:30:46;3.40;;;1.98;;
48795;SDS011;34607;48.520;-1.330;2023-07-13T14:33:14;4.28;;;1.80;;
48795;SDS011;34607;48.520;-1.330;2023-07-13T14:35:42;3.70;;;2.13;;
48795;SDS011;34607;48.520;-1.330;2023-07-13T14:38:10;4.03;;;2.00;;
48795;SDS011;34607;48.520;-1.330;2023-07-13T14:40:41;4.95;;;1.88;;
48795;SDS011;34607;48.520;-1.330;2023-07-13T14:43:11;3.85;;;1.98;;
48795;SDS011;34607;48.520;-1.330;2023-07-13T14:45:40;5.07;;;2.03;;
48795;SDS011;34607;48.520;-1.330;2023-07-13T14:48:19;4.70;;;2.20;;
48795;SDS011;34607;48.520;-1.330;2023-07-13T14:50:49;4.20;;;2.15;;
48795;SDS011;34607;48.520;-1.330;2023-07-13T14:53:19;4.30;;;2.25;;
48795;SDS011;34607;48.520;-1.330;2023-07-13T14:55:47;3.28;;;2.30;;
48795;SDS011;34607;48.520;-1.330;2023-07-13T14:58:14;3.78;;;1.85;;
48795;SDS011;34607;48.520;-1.330;2023-07-13T15:00:41;2.65;;;1.67;;
48795;SDS011;34607;48.520;-1.330;2023-07-13T15:03:13;6.95;;;2.30;;
48795;SDS011;34607;48.520;-1.330;2023-07-13T15:05:47;3.22;;;2.28;;
48795;SDS011;34607;48.520;-1.330;2023-07-13T15:08:15;2.25;;;1.80;;
48795;SDS011;34607;48.520;-1.330;2023-07-13T15:10:42;4.32;;;1.70;;
48795;SDS011;34607;48.520;-1.330;2023-07-13T15:13:14;4.03;;;1.85;;
48795;SDS011;34607;48.520;-1.330;2023-07-13T15:15:43;2.65;;;1.80;;
48795;SDS011;34607;48.520;-1.330;2023-07-13T15:18:12;2.90;;;1.45;;
48795;SDS011;34607;48.520;-1.330;2023-07-13T15:20:44;3.88;;;1.70;;
48795;SDS011;34607;48.520;-1.330;2023-07-13T15:23:12;4.70;;;1.98;;
48795;SDS011;34607;48.520;-1.330;2023-07-13T15:25:40;2.67;;;1.80;;
48795;SDS011;34607;48.520;-1.330;2023-07-13T15:28:09;2.10;;;1.50;;
48795;SDS011;34607;48.520;-1.330;2023-07-13T15:30:38;1.98;;;1.55;;
48795;SDS011;34607;48.520;-1.330;2023-07-13T15:33:10;9.23;;;1.92;;
48795;SDS011;34607;48.520;-1.330;2023-07-13T15:35:43;4.07;;;1.98;;
48795;SDS011;34607;48.520;-1.330;2023-07-13T15:38:15;4.20;;;1.83;;
48795;SDS011;34607;48.520;-1.330;2023-07-13T15:40:43;3.00;;;1.63;;
48795;SDS011;34607;48.520;-1.330;2023-07-13T15:43:11;5.88;;;1.85;;
48795;SDS011;34607;48.520;-1.330;2023-07-13T15:45:39;5.20;;;2.08;;
48795;SDS011;34607;48.520;-1.330;2023-07-13T15:48:11;4.05;;;1.75;;
48795;SDS011;34607;48.520;-1.330;2023-07-13T15:50:42;4.20;;;1.90;;
48795;SDS011;34607;48.520;-1.330;2023-07-13T15:53:13;2.75;;;2.08;;
48795;SDS011;34607;48.520;-1.330;2023-07-13T15:55:41;4.10;;;2.15;;
48795;SDS011;34607;48.520;-1.330;2023-07-13T15:58:09;2.58;;;1.75;;
48795;SDS011;34607;48.520;-1.330;2023-07-13T16:00:40;5.15;;;2.10;;
48795;SDS011;34607;48.520;-1.330;2023-07-13T16:03:07;3.70;;;1.77;;
48795;SDS011;34607;48.520;-1.330;2023-07-13T16:05:34;2.50;;;1.70;;
48795;SDS011;34607;48.520;-1.330;2023-07-13T16:08:04;2.95;;;2.08;;
48795;SDS011;34607;48.520;-1.330;2023-07-13T16:10:33;4.30;;;2.17;;
48795;SDS011;34607;48.520;-1.330;2023-07-13T16:13:07;2.58;;;1.65;;
48795;SDS011;34607;48.520;-1.330;2023-07-13T16:15:40;2.47;;;2.05;;
48795;SDS011;34607;48.520;-1.330;2023-07-13T16:18:10;2.92;;;1.90;;
48795;SDS011;34607;48.520;-1.330;2023-07-13T16:20:37;2.90;;;2.00;;
48795;SDS011;34607;48.520;-1.330;2023-07-13T16:23:08;3.40;;;2.47;;
48795;SDS011;34607;48.520;-1.330;2023-07-13T16:25:37;4.18;;;2.22;;
48795;SDS011;34607;48.520;-1.330;2023-07-13T16:28:04;5.20;;;3.08;;
48795;SDS011;34607;48.520;-1.330;2023-07-13T16:30:31;2.60;;;2.22;;
48795;SDS011;34607;48.520;-1.330;2023-07-13T16:32:59;6.20;;;2.10;;
48795;SDS011;34607;48.520;-1.330;2023-07-13T16:35:30;2.95;;;1.88;;
